createdAt,value
2017-05-13T11:55:43.600Z,6460
2017-05-13T11:56:30.909Z,5976
2017-05-13T11:57:17.252Z,5568
2017-05-13T11:58:05.013Z,5144
2017-05-13T11:58:47.992Z,4824
2017-05-13T11:59:28.485Z,4636
2017-05-13T12:00:08.995Z,4540
2017-05-13T12:00:49.501Z,4540
2017-05-13T12:01:29.969Z,4652
2017-05-13T12:02:10.498Z,4836
2017-05-13T12:02:50.932Z,5032
2017-05-13T12:03:31.410Z,5208
2017-05-13T12:04:12.155Z,5380
2017-05-13T12:04:52.655Z,5568
2017-05-13T12:05:33.158Z,5760
2017-05-13T12:06:13.630Z,5932
2017-05-13T12:06:54.120Z,6040
2017-05-13T12:07:34.624Z,6088
2017-05-13T12:08:15.140Z,6152
2017-05-13T12:08:55.609Z,6296
2017-05-13T12:09:36.118Z,6568
2017-05-13T12:10:16.636Z,6968
2017-05-13T12:10:57.075Z,7540
2017-05-13T12:11:37.584Z,8252
2017-05-13T12:12:18.059Z,9008
2017-05-13T12:12:58.538Z,9628
2017-05-13T12:13:39.018Z,9976
2017-05-13T12:14:19.468Z,10096
2017-05-13T12:14:59.967Z,10008
2017-05-13T12:15:40.487Z,9736
2017-05-13T12:16:20.953Z,9260
2017-05-13T12:17:01.413Z,8688
2017-05-13T12:17:41.928Z,8092
2017-05-13T12:18:22.395Z,7524
2017-05-13T12:19:02.948Z,7004
2017-05-13T12:19:43.468Z,6564
2017-05-13T12:20:23.906Z,6220
2017-05-13T12:21:04.399Z,5996
2017-05-13T12:21:44.919Z,5876
2017-05-13T12:22:25.398Z,5848
2017-05-13T12:23:05.874Z,5884
2017-05-13T12:23:46.326Z,5928
2017-05-13T12:24:26.774Z,5936
2017-05-13T12:25:07.254Z,5916
2017-05-13T12:25:47.751Z,5932
2017-05-13T12:26:28.238Z,6020
2017-05-13T12:27:08.744Z,6260
2017-05-13T12:27:49.218Z,6696
2017-05-13T12:28:29.739Z,7316
2017-05-13T12:29:10.299Z,8056
2017-05-13T12:29:50.792Z,8792
2017-05-13T12:30:31.277Z,9532
2017-05-13T12:31:11.812Z,10148
2017-05-13T12:31:52.308Z,10692
2017-05-13T12:32:33.085Z,11236
2017-05-13T12:33:13.575Z,11740
2017-05-13T12:33:54.158Z,12184
2017-05-13T12:34:34.691Z,12556
2017-05-13T12:35:15.158Z,12848
2017-05-13T12:35:55.639Z,13076
2017-05-13T12:36:36.123Z,13224
2017-05-13T12:37:16.618Z,13276
2017-05-13T12:37:57.159Z,13224
2017-05-13T12:38:37.663Z,13088
2017-05-13T12:39:18.110Z,12896
2017-05-13T12:39:58.640Z,12684
2017-05-13T12:40:39.090Z,12560
2017-05-13T12:41:19.599Z,12600
2017-05-13T12:42:00.164Z,12832
2017-05-13T12:42:40.645Z,13232
2017-05-13T12:43:21.120Z,13560
2017-05-13T12:44:01.596Z,13824
2017-05-13T12:44:42.095Z,14068
2017-05-13T12:45:22.591Z,14276
2017-05-13T12:46:03.115Z,14460
2017-05-13T12:46:43.627Z,14628
2017-05-13T12:47:24.092Z,14772
2017-05-13T12:48:04.646Z,14908
2017-05-13T12:48:45.129Z,15016
2017-05-13T12:49:25.634Z,15148
2017-05-13T12:50:06.125Z,15256
2017-05-13T12:50:46.584Z,15324
2017-05-13T12:51:27.081Z,15388
2017-05-13T12:52:07.571Z,15472
2017-05-13T12:52:48.062Z,15464
2017-05-13T12:53:28.582Z,15400
2017-05-13T12:54:09.120Z,15304
2017-05-13T12:54:49.560Z,15184
2017-05-13T12:55:30.081Z,15088
2017-05-13T12:56:10.532Z,15040
2017-05-13T12:56:51.052Z,15032
2017-05-13T12:57:31.548Z,15044
2017-05-13T12:58:12.020Z,15168
2017-05-13T12:58:52.561Z,15408
2017-05-13T12:59:32.998Z,15688
2017-05-13T13:00:13.502Z,15932
2017-05-13T13:00:53.981Z,16076
2017-05-13T13:01:34.498Z,16120
2017-05-13T13:02:14.973Z,15984
2017-05-13T13:02:55.454Z,15808
2017-05-13T13:03:35.975Z,15700
2017-05-13T13:04:16.446Z,15692
2017-05-13T13:04:56.923Z,15896
2017-05-13T13:05:37.571Z,16328
2017-05-13T13:06:18.086Z,17088
2017-05-13T13:06:58.521Z,17504
2017-05-13T13:07:39.011Z,18240
2017-05-13T13:08:19.510Z,19744
2017-05-13T13:08:59.988Z,20352
2017-05-13T13:09:40.483Z,21664
2017-05-13T13:10:20.998Z,25312
2017-05-13T13:11:01.528Z,26880
2017-05-13T13:11:42.009Z,24480
2017-05-13T13:12:22.512Z,23520
2017-05-13T13:13:02.969Z,22752
2017-05-13T13:13:43.506Z,21632
2017-05-13T13:14:23.982Z,20480
2017-05-13T13:15:04.454Z,19232
2017-05-13T13:15:44.984Z,18144
2017-05-13T13:16:27.272Z,17376
2017-05-13T13:17:07.764Z,16704
2017-05-13T13:17:48.278Z,16336
2017-05-13T13:18:28.831Z,16168
2017-05-13T13:19:09.308Z,16188
2017-05-13T13:19:49.775Z,16292
2017-05-13T13:20:30.317Z,16432
2017-05-13T13:21:10.794Z,16580
2017-05-13T13:21:51.284Z,16660
2017-05-13T13:22:31.769Z,16624
2017-05-13T13:23:12.247Z,16492
2017-05-13T13:23:52.727Z,16196
2017-05-13T13:24:33.280Z,15808
2017-05-13T13:25:13.705Z,15340
2017-05-13T13:25:54.221Z,14816
2017-05-13T13:26:34.743Z,14296
2017-05-13T13:27:15.241Z,13868
2017-05-13T13:27:55.714Z,13500
2017-05-13T13:28:36.224Z,13208
2017-05-13T13:29:16.716Z,12952
2017-05-13T13:29:57.226Z,12848
2017-05-13T13:30:37.700Z,12660
2017-05-13T13:31:18.182Z,12400
2017-05-13T13:31:58.674Z,12292
2017-05-13T13:32:39.171Z,12284
2017-05-13T13:33:19.624Z,12488
2017-05-13T13:34:00.102Z,12944
2017-05-13T13:34:40.627Z,13720
2017-05-13T13:35:21.070Z,14816
2017-05-13T13:36:01.558Z,15788
2017-05-13T13:36:42.051Z,16316
2017-05-13T13:37:22.545Z,16536
2017-05-13T13:38:03.037Z,16764
2017-05-13T13:38:43.520Z,17056
2017-05-13T13:39:23.980Z,17568
2017-05-13T13:40:04.555Z,17984
2017-05-13T13:40:45.056Z,18304
2017-05-13T13:41:25.482Z,18528
2017-05-13T13:42:05.973Z,18688
2017-05-13T13:42:46.460Z,18816
2017-05-13T13:43:26.968Z,18784
2017-05-13T13:44:07.424Z,18592
2017-05-13T13:44:47.897Z,18272
2017-05-13T13:45:28.412Z,17920
2017-05-13T13:46:08.988Z,17440
2017-05-13T13:46:49.461Z,16832
2017-05-13T13:47:29.991Z,16304
2017-05-13T13:48:10.477Z,15780
2017-05-13T13:48:51.012Z,15372
2017-05-13T13:49:31.532Z,15080
2017-05-13T13:50:11.992Z,15088
2017-05-13T13:50:52.473Z,15196
2017-05-13T13:51:32.973Z,15292
2017-05-13T13:52:13.486Z,15332
2017-05-13T13:52:53.989Z,15260
2017-05-13T13:53:34.587Z,15024
2017-05-13T13:54:15.085Z,14716
2017-05-13T13:54:55.611Z,14364
2017-05-13T13:55:36.066Z,14040
2017-05-13T13:56:16.556Z,13752
2017-05-13T13:56:57.039Z,13524
2017-05-13T13:57:37.550Z,13368
2017-05-13T13:58:18.040Z,13236
2017-05-13T13:58:58.577Z,13096
2017-05-13T13:59:39.037Z,12960
2017-05-13T14:00:19.493Z,12856
2017-05-13T14:01:00.056Z,12860
2017-05-13T14:01:40.501Z,13016
2017-05-13T14:02:21.028Z,13332
2017-05-13T14:03:01.519Z,13684
2017-05-13T14:03:42.014Z,13868
2017-05-13T14:04:22.577Z,13812
2017-05-13T14:05:03.040Z,13552
2017-05-13T14:05:43.522Z,13084
2017-05-13T14:06:24.017Z,12412
2017-05-13T14:07:04.492Z,11640
2017-05-13T14:07:45.010Z,10852
2017-05-13T14:08:25.473Z,10128
2017-05-13T14:09:06.005Z,9492
2017-05-13T14:09:46.510Z,8948
2017-05-13T14:10:27.124Z,8552
2017-05-13T14:11:07.589Z,8348
2017-05-13T14:11:48.080Z,8240
2017-05-13T14:12:28.539Z,8176
2017-05-13T14:13:09.044Z,8148
2017-05-13T14:13:49.525Z,8132
2017-05-13T14:14:30.104Z,8080
2017-05-13T14:15:10.635Z,7944
2017-05-13T14:15:51.100Z,7724
2017-05-13T14:16:31.581Z,7372
2017-05-13T14:17:12.138Z,6984
2017-05-13T14:17:52.626Z,6740
2017-05-13T14:18:33.218Z,6396
2017-05-13T14:19:13.730Z,6004
2017-05-13T14:19:54.211Z,5692
2017-05-13T14:20:34.670Z,5596
2017-05-13T14:21:15.144Z,5608
2017-05-13T14:21:55.641Z,5616
2017-05-13T14:22:36.115Z,5520
2017-05-13T14:23:16.584Z,5404
2017-05-13T14:23:57.075Z,5256
2017-05-13T14:24:37.543Z,5052
2017-05-13T14:25:18.018Z,4824
2017-05-13T14:25:58.516Z,4620
2017-05-13T14:26:39.014Z,4456
2017-05-13T14:27:19.563Z,4340
2017-05-13T14:28:00.021Z,4284
2017-05-13T14:28:40.527Z,4276
2017-05-13T14:29:21.025Z,4316
2017-05-13T14:30:01.556Z,4404
2017-05-13T14:30:42.017Z,4524
2017-05-13T14:31:22.521Z,4644
2017-05-13T14:32:02.970Z,4756
2017-05-13T14:32:43.447Z,4844
2017-05-13T14:33:23.983Z,4896
2017-05-13T14:34:04.409Z,4940
2017-05-13T14:34:44.922Z,4976
2017-05-13T14:35:25.412Z,5028
2017-05-13T14:36:05.911Z,5108
2017-05-13T14:36:46.388Z,5228
2017-05-13T14:37:26.887Z,5412
2017-05-13T14:38:07.393Z,5648
2017-05-13T14:38:47.850Z,5932
2017-05-13T14:39:28.352Z,6248
2017-05-13T14:40:08.853Z,6588
2017-05-13T14:40:49.354Z,6928
2017-05-13T14:41:29.793Z,7216
2017-05-13T14:42:10.247Z,7432
2017-05-13T14:42:50.877Z,7532
2017-05-13T14:43:31.350Z,7508
2017-05-13T14:44:11.898Z,7352
2017-05-13T14:44:52.397Z,7080
2017-05-13T14:45:32.916Z,6752
2017-05-13T14:46:13.427Z,6376
2017-05-13T14:46:53.890Z,5960
2017-05-13T14:47:34.310Z,5524
2017-05-13T14:48:14.799Z,5100
2017-05-13T14:48:55.393Z,4704
2017-05-13T14:49:35.823Z,4348
2017-05-13T14:50:16.355Z,4044
2017-05-13T14:50:56.789Z,3784
2017-05-13T14:51:37.334Z,3568
2017-05-13T14:52:18.118Z,3380
2017-05-13T14:52:58.667Z,3232
2017-05-13T14:53:39.181Z,3124
2017-05-13T14:54:19.657Z,3044
2017-05-13T14:55:00.130Z,3004
2017-05-13T14:55:40.636Z,2988
2017-05-13T14:56:21.150Z,2996
2017-05-13T14:57:01.605Z,3028
2017-05-13T14:57:42.101Z,3072
2017-05-13T14:58:22.643Z,3128
2017-05-13T14:59:03.114Z,3188
2017-05-13T14:59:43.635Z,3256
2017-05-13T15:00:24.085Z,3340
2017-05-13T15:01:04.597Z,3444
2017-05-13T15:01:45.100Z,3568
2017-05-13T15:02:25.708Z,3712
2017-05-13T15:03:06.207Z,3864
2017-05-13T15:03:46.693Z,4000
2017-05-13T15:04:27.188Z,4096
2017-05-13T15:05:07.659Z,4152
2017-05-13T15:05:48.166Z,4176
2017-05-13T15:06:28.621Z,4180
2017-05-13T15:07:09.136Z,4188
2017-05-13T15:07:49.621Z,4200
2017-05-13T15:08:30.107Z,4216
2017-05-13T15:09:10.599Z,4240
2017-05-13T15:09:51.129Z,4268
2017-05-13T15:10:31.635Z,4284
2017-05-13T15:11:12.098Z,4296
2017-05-13T15:11:52.587Z,4312
2017-05-13T15:12:33.182Z,4328
2017-05-13T15:13:13.634Z,4352
2017-05-13T15:13:54.143Z,4380
2017-05-13T15:14:34.622Z,4432
2017-05-13T15:15:15.178Z,4520
2017-05-13T15:15:55.684Z,4632
2017-05-13T15:16:36.209Z,4760
2017-05-13T15:17:18.523Z,4888
2017-05-13T15:17:58.986Z,5000
2017-05-13T15:18:39.484Z,5088
2017-05-13T15:19:20.074Z,5152
2017-05-13T15:20:00.465Z,5180
2017-05-13T15:20:40.952Z,5180
2017-05-13T15:21:21.426Z,5144
2017-05-13T15:22:01.929Z,5088
2017-05-13T15:22:42.383Z,5004
2017-05-13T15:23:22.891Z,4920
2017-05-13T15:24:03.352Z,4836
2017-05-13T15:24:43.863Z,4768
2017-05-13T15:25:24.313Z,4712
2017-05-13T15:26:04.895Z,4676
2017-05-13T15:26:45.367Z,4652
2017-05-13T15:27:25.889Z,4636
2017-05-13T15:28:06.490Z,4612
2017-05-13T15:28:46.963Z,4588
2017-05-13T15:29:27.457Z,4564
2017-05-13T15:30:07.934Z,4536
2017-05-13T15:30:48.437Z,4500
2017-05-13T15:31:28.932Z,4444
2017-05-13T15:32:09.378Z,4368
2017-05-13T15:32:49.858Z,4264
2017-05-13T15:33:30.338Z,4128
2017-05-13T15:34:10.846Z,3972
2017-05-13T15:34:51.307Z,3800
2017-05-13T15:35:31.778Z,3624
2017-05-13T15:36:12.260Z,3440
2017-05-13T15:36:52.781Z,3272
2017-05-13T15:37:33.233Z,3116
2017-05-13T15:38:13.754Z,2976
2017-05-13T15:38:54.238Z,2860
2017-05-13T15:39:34.714Z,2752
2017-05-13T15:40:15.175Z,2664
2017-05-13T15:40:55.693Z,2588
2017-05-13T15:41:36.183Z,2528
2017-05-13T15:42:16.677Z,2488
2017-05-13T15:42:57.197Z,2460
2017-05-13T15:43:37.677Z,2440
2017-05-13T15:44:18.180Z,2432
2017-05-13T15:44:58.650Z,2428
2017-05-13T15:45:39.182Z,2424
2017-05-13T15:46:19.662Z,2424
2017-05-13T15:47:00.176Z,2424
2017-05-13T15:47:40.610Z,2428
2017-05-13T15:48:21.155Z,2436
2017-05-13T15:49:01.601Z,2444
2017-05-13T15:49:42.096Z,2456
2017-05-13T15:50:22.573Z,2468
2017-05-13T15:51:03.063Z,2492
2017-05-13T15:51:43.544Z,2520
2017-05-13T15:52:24.021Z,2552
2017-05-13T15:53:04.491Z,2588
2017-05-13T15:53:44.964Z,2616
2017-05-13T15:54:25.504Z,2640
2017-05-13T15:55:05.944Z,2668
2017-05-13T15:55:46.426Z,2704
2017-05-13T15:56:26.920Z,2748
2017-05-13T15:57:07.412Z,2804
2017-05-13T15:57:47.906Z,2868
2017-05-13T15:58:28.415Z,2940
2017-05-13T15:59:08.888Z,3012
2017-05-13T15:59:49.395Z,3084
2017-05-13T16:00:29.856Z,3152
2017-05-13T16:01:10.322Z,3216
2017-05-13T16:01:50.808Z,3276
2017-05-13T16:02:31.294Z,3324
2017-05-13T16:03:11.796Z,3364
2017-05-13T16:03:52.267Z,3392
2017-05-13T16:04:32.765Z,3400
2017-05-13T16:05:13.239Z,3392
2017-05-13T16:05:53.707Z,3364
2017-05-13T16:06:34.200Z,3312
2017-05-13T16:07:14.704Z,3264
2017-05-13T16:07:55.187Z,3208
2017-05-13T16:08:35.668Z,3148
2017-05-13T16:09:16.148Z,3080
2017-05-13T16:09:56.625Z,3008
2017-05-13T16:10:37.148Z,2948
2017-05-13T16:11:17.622Z,2876
2017-05-13T16:11:58.095Z,2804
2017-05-13T16:12:38.577Z,2740
2017-05-13T16:13:19.056Z,2688
2017-05-13T16:13:59.557Z,2644
2017-05-13T16:14:40.052Z,2608
2017-05-13T16:15:20.517Z,2576
2017-05-13T16:16:01.009Z,2540
2017-05-13T16:16:41.489Z,2504
2017-05-13T16:17:21.988Z,2456
2017-05-13T16:18:02.465Z,2412
2017-05-13T16:18:42.939Z,2364
2017-05-13T16:19:23.438Z,2320
2017-05-13T16:20:03.961Z,2280
2017-05-13T16:20:44.424Z,2248
2017-05-13T16:21:24.970Z,2228
2017-05-13T16:22:05.515Z,2208
2017-05-13T16:22:45.966Z,2188
2017-05-13T16:23:26.458Z,2168
2017-05-13T16:24:06.944Z,2148
2017-05-13T16:24:47.409Z,2124
2017-05-13T16:25:27.948Z,2100
2017-05-13T16:26:08.418Z,2076
2017-05-13T16:26:48.882Z,2048
2017-05-13T16:27:29.393Z,2024
2017-05-13T16:28:09.838Z,2004
2017-05-13T16:28:50.318Z,1980
2017-05-13T16:29:30.779Z,1964
2017-05-13T16:30:11.271Z,1948
2017-05-13T16:30:51.740Z,1936
2017-05-13T16:31:32.220Z,1916
2017-05-13T16:32:12.687Z,1900
2017-05-13T16:32:53.154Z,1892
2017-05-13T16:33:33.659Z,1876
2017-05-13T16:34:14.118Z,1872
2017-05-13T16:34:54.593Z,1868
2017-05-13T16:35:35.153Z,1872
2017-05-13T16:36:15.575Z,1876
2017-05-13T16:36:56.077Z,1888
2017-05-13T16:37:36.533Z,1908
2017-05-13T16:38:17.026Z,1944
2017-05-13T16:38:57.485Z,1984
2017-05-13T16:39:37.973Z,2024
2017-05-13T16:40:18.471Z,2072
2017-05-13T16:40:58.926Z,2128
2017-05-13T16:41:39.422Z,2180
2017-05-13T16:42:19.868Z,2236
2017-05-13T16:43:00.386Z,2292
2017-05-13T16:43:43.730Z,2352
2017-05-13T16:44:24.221Z,2408
2017-05-13T16:45:04.683Z,2468
2017-05-13T16:45:45.168Z,2528
2017-05-13T16:46:25.658Z,2584
2017-05-13T16:47:06.192Z,2620
2017-05-13T16:47:46.678Z,2648
2017-05-13T16:48:27.182Z,2660
2017-05-13T16:49:07.709Z,2664
2017-05-13T16:49:48.178Z,2668
2017-05-13T16:50:28.654Z,2680
2017-05-13T16:51:09.158Z,2680
2017-05-13T16:51:49.668Z,2676
2017-05-13T16:52:30.149Z,2648
2017-05-13T16:53:10.644Z,2600
2017-05-13T16:53:51.153Z,2520
2017-05-13T16:54:31.619Z,2444
2017-05-13T16:55:12.088Z,2372
2017-05-13T16:55:52.579Z,2324
2017-05-13T16:56:33.038Z,2292
2017-05-13T16:57:13.545Z,2284
2017-05-13T16:57:54.013Z,2292
2017-05-13T16:58:34.478Z,2304
2017-05-13T16:59:15.021Z,2324
2017-05-13T16:59:55.527Z,2344
2017-05-13T17:00:35.995Z,2384
2017-05-13T17:01:16.723Z,2420
2017-05-13T17:01:57.217Z,2456
2017-05-13T17:02:37.724Z,2480
2017-05-13T17:03:18.198Z,2492
2017-05-13T17:03:58.646Z,2488
2017-05-13T17:04:39.113Z,2472
2017-05-13T17:07:13.245Z,2344
2017-05-13T17:09:19.368Z,2272
2017-05-13T17:10:07.837Z,2236
2017-05-13T17:10:51.948Z,2208
2017-05-13T17:11:40.372Z,2176
2017-05-13T17:12:21.927Z,2144
2017-05-13T17:13:02.417Z,2116
2017-05-13T17:13:42.876Z,2068
2017-05-13T17:14:23.344Z,2000
2017-05-13T17:15:03.851Z,1932
2017-05-13T17:15:44.368Z,1868
2017-05-13T17:16:24.812Z,1820
2017-05-13T17:17:05.303Z,1792
2017-05-13T17:17:45.777Z,1776
2017-05-13T17:18:26.251Z,1772
2017-05-13T17:19:06.736Z,1776
2017-05-13T17:19:47.247Z,1788
2017-05-13T17:20:27.706Z,1808
2017-05-13T17:21:08.220Z,1824
2017-05-13T17:21:48.677Z,1832
2017-05-13T17:22:29.159Z,1836
2017-05-13T17:23:09.643Z,1832
2017-05-13T17:23:50.143Z,1816
2017-05-13T17:24:30.612Z,1800
2017-05-13T17:25:11.140Z,1780
2017-05-13T17:25:51.602Z,1756
2017-05-13T17:26:32.078Z,1728
2017-05-13T17:27:12.575Z,1688
2017-05-13T17:27:53.035Z,1648
2017-05-13T17:28:33.492Z,1608
2017-05-13T17:29:13.957Z,1560
2017-05-13T17:29:54.472Z,1508
2017-05-13T17:30:34.945Z,1464
2017-05-13T17:31:15.414Z,1416
2017-05-13T17:31:55.913Z,1368
2017-05-13T17:32:36.383Z,1324
2017-05-13T17:33:16.869Z,1280
2017-05-13T17:33:57.347Z,1236
2017-05-13T17:34:37.858Z,1196
2017-05-13T17:35:18.346Z,1156
2017-05-13T17:35:58.837Z,1120
2017-05-13T17:36:39.327Z,1080
2017-05-13T17:37:19.818Z,1052
2017-05-13T17:38:00.292Z,1020
2017-05-13T17:38:40.813Z,996
2017-05-13T17:39:21.371Z,976
2017-05-13T17:40:01.850Z,960
2017-05-13T17:40:42.352Z,948
2017-05-13T17:41:22.838Z,932
2017-05-13T17:42:03.297Z,924
2017-05-13T17:42:43.751Z,920
2017-05-13T17:43:24.259Z,916
2017-05-13T17:44:04.721Z,916
2017-05-13T17:44:45.168Z,916
2017-05-13T17:45:25.687Z,920
2017-05-13T17:46:06.180Z,920
2017-05-13T17:46:46.688Z,920
2017-05-13T17:47:27.187Z,920
2017-05-13T17:48:07.668Z,920
2017-05-13T17:48:48.150Z,916
2017-05-13T17:49:28.606Z,912
2017-05-13T17:50:09.089Z,908
2017-05-13T17:50:49.610Z,904
2017-05-13T17:51:30.089Z,892
2017-05-13T17:52:10.631Z,888
2017-05-13T17:52:51.091Z,880
2017-05-13T17:53:31.615Z,876
2017-05-13T17:54:12.093Z,868
2017-05-13T17:54:52.613Z,856
2017-05-13T17:55:33.109Z,848
2017-05-13T17:56:13.584Z,836
2017-05-13T17:56:54.055Z,828
2017-05-13T17:57:34.536Z,820
2017-05-13T17:58:15.018Z,816
2017-05-13T17:58:55.498Z,812
2017-05-13T17:59:35.967Z,816
2017-05-13T18:00:16.443Z,824
2017-05-13T18:00:56.951Z,840
2017-05-13T18:01:37.463Z,856
2017-05-13T18:02:17.941Z,884
2017-05-13T18:02:58.416Z,916
2017-05-13T18:03:38.938Z,960
2017-05-13T18:04:19.364Z,1012
2017-05-13T18:04:59.847Z,1076
2017-05-13T18:05:40.397Z,1140
2017-05-13T18:06:20.856Z,1220
2017-05-13T18:07:01.530Z,1304
2017-05-13T18:07:41.999Z,1384
2017-05-13T18:08:22.457Z,1476
2017-05-13T18:09:02.994Z,1568
2017-05-13T18:09:43.467Z,1664
2017-05-13T18:10:23.919Z,1764
2017-05-13T18:11:04.419Z,1864
2017-05-13T18:11:44.917Z,1972
2017-05-13T18:12:25.453Z,2072
2017-05-13T18:13:05.947Z,2164
2017-05-13T18:13:46.413Z,2244
2017-05-13T18:14:26.909Z,2312
2017-05-13T18:15:07.345Z,2368
2017-05-13T18:15:47.855Z,2412
2017-05-13T18:16:28.301Z,2440
2017-05-13T18:17:08.807Z,2448
2017-05-13T18:17:49.237Z,2444
2017-05-13T18:18:29.782Z,2436
2017-05-13T18:19:10.239Z,2432
2017-05-13T18:19:50.701Z,2432
2017-05-13T18:20:31.174Z,2444
2017-05-13T18:21:11.754Z,2480
2017-05-13T18:21:52.227Z,2552
2017-05-13T18:22:32.711Z,2588
2017-05-13T18:23:13.227Z,2604
2017-05-13T18:23:53.729Z,2620
2017-05-13T18:24:34.172Z,2632
2017-05-13T18:25:14.639Z,2628
2017-05-13T18:25:55.130Z,2616
2017-05-13T18:26:35.668Z,2596
2017-05-13T18:27:16.125Z,2576
2017-05-13T18:27:56.649Z,2564
2017-05-13T18:28:37.107Z,2536
2017-05-13T18:29:17.559Z,2480
2017-05-13T18:29:58.037Z,2428
2017-05-13T18:30:38.523Z,2368
2017-05-13T18:31:19.031Z,2288
2017-05-13T18:31:59.479Z,2200
2017-05-13T18:32:39.968Z,2124
2017-05-13T18:33:20.448Z,2068
2017-05-13T18:34:00.977Z,2024
2017-05-13T18:34:41.423Z,1984
2017-05-13T18:35:21.928Z,1964
2017-05-13T18:36:02.404Z,1952
2017-05-13T18:36:42.910Z,1928
2017-05-13T18:37:23.370Z,1920
2017-05-13T18:38:03.881Z,1912
2017-05-13T18:38:44.361Z,1900
2017-05-13T18:39:24.827Z,1888
2017-05-13T18:40:05.353Z,1908
2017-05-13T18:40:45.849Z,1924
2017-05-13T18:41:26.336Z,1940
2017-05-13T18:42:06.857Z,1952
2017-05-13T18:42:47.329Z,1964
2017-05-13T18:43:27.858Z,1980
2017-05-13T18:44:08.279Z,1996
2017-05-13T18:44:48.761Z,2004
2017-05-13T18:45:29.249Z,2020
2017-05-13T18:46:09.752Z,2040
2017-05-13T18:46:50.213Z,2064
2017-05-13T18:47:30.675Z,2080
2017-05-13T18:48:11.184Z,2112
2017-05-13T18:48:51.663Z,2144
2017-05-13T18:49:32.121Z,2188
2017-05-13T18:50:12.597Z,2232
2017-05-13T18:50:53.070Z,2280
2017-05-13T18:51:33.588Z,2312
2017-05-13T18:52:14.090Z,2336
2017-05-13T18:52:54.533Z,2344
2017-05-13T18:53:35.070Z,2328
2017-05-13T18:54:15.501Z,2288
2017-05-13T18:54:55.997Z,2220
2017-05-13T18:55:36.492Z,2152
2017-05-13T18:56:16.951Z,2084
2017-05-13T18:56:57.405Z,2024
2017-05-13T18:57:37.896Z,1960
2017-05-13T18:58:18.383Z,1868
2017-05-13T18:58:58.858Z,1780
2017-05-13T18:59:39.332Z,1700
2017-05-13T19:00:19.821Z,1624
2017-05-13T19:01:00.319Z,1564
2017-05-13T19:01:40.823Z,1504
2017-05-13T19:02:21.289Z,1472
2017-05-13T19:03:01.784Z,1452
2017-05-13T19:03:42.257Z,1440
2017-05-13T19:04:22.729Z,1424
2017-05-13T19:05:03.251Z,1380
2017-05-13T19:05:43.705Z,1332
2017-05-13T19:06:24.188Z,1280
2017-05-13T19:07:04.666Z,1224
2017-05-13T19:07:45.208Z,1188
2017-05-13T19:08:25.698Z,1144
2017-05-13T19:09:06.242Z,1112
2017-05-13T19:09:46.711Z,1072
2017-05-13T19:10:27.171Z,1032
2017-05-13T19:11:07.679Z,992
2017-05-13T19:11:48.115Z,952
2017-05-13T19:12:28.610Z,904
2017-05-13T19:13:09.091Z,856
2017-05-13T19:13:49.564Z,812
2017-05-13T19:14:30.070Z,760
2017-05-13T19:15:10.536Z,708
2017-05-13T19:15:51.028Z,660
2017-05-13T19:16:31.502Z,612
2017-05-13T19:17:11.938Z,572
2017-05-13T19:17:52.412Z,528
2017-05-13T19:18:32.881Z,496
2017-05-13T19:19:13.379Z,464
2017-05-13T19:19:53.872Z,428
2017-05-13T19:20:34.411Z,396
2017-05-13T19:21:14.896Z,364
2017-05-13T19:21:55.350Z,336
2017-05-13T19:22:35.865Z,308
2017-05-13T19:23:16.311Z,280
2017-05-13T19:23:56.777Z,256
2017-05-13T19:24:37.257Z,232
2017-05-13T19:25:17.758Z,216
2017-05-13T19:25:58.241Z,196
2017-05-13T19:26:38.749Z,176
2017-05-13T19:27:19.210Z,164
2017-05-13T19:27:59.685Z,148
2017-05-13T19:28:40.155Z,136
2017-05-13T19:29:20.642Z,124
2017-05-13T19:30:01.114Z,112
2017-05-13T19:30:41.589Z,104
2017-05-13T19:31:22.095Z,96
2017-05-13T19:32:02.555Z,92
2017-05-13T19:32:43.081Z,84
2017-05-13T19:33:23.567Z,80
2017-05-13T19:34:04.060Z,72
2017-05-13T19:34:44.536Z,68
2017-05-13T19:35:25.012Z,64
2017-05-13T19:36:05.511Z,60
2017-05-13T19:36:46.019Z,56
2017-05-13T19:37:26.508Z,48
2017-05-13T19:38:06.948Z,48
2017-05-13T19:38:47.468Z,44
2017-05-13T19:39:27.947Z,36
2017-05-13T19:40:08.397Z,36
2017-05-13T19:40:48.870Z,32
2017-05-13T19:41:29.341Z,32
2017-05-13T19:42:09.828Z,28
2017-05-13T19:42:50.324Z,28
2017-05-13T19:43:30.840Z,24
2017-05-13T19:44:11.300Z,20
2017-05-13T19:44:51.803Z,20
2017-05-13T19:45:32.293Z,16
2017-05-13T19:46:12.790Z,16
2017-05-13T19:46:53.306Z,16
2017-05-13T19:47:33.784Z,12
2017-05-13T19:48:14.381Z,12
2017-05-13T19:48:54.864Z,12
2017-05-13T19:49:35.343Z,8
2017-05-13T19:50:15.842Z,12
2017-05-13T19:50:56.293Z,12
2017-05-13T19:51:36.821Z,8
2017-05-13T19:52:17.303Z,8
2017-05-13T19:52:57.765Z,8
2017-05-13T19:53:38.280Z,4
2017-05-13T19:54:18.759Z,8
2017-05-13T19:54:59.225Z,8
2017-05-13T19:55:39.736Z,4
2017-05-13T19:56:20.218Z,4
2017-05-13T19:57:00.671Z,8
2017-05-13T19:57:41.145Z,4
2017-05-13T19:58:21.593Z,4
2017-05-13T19:59:02.075Z,4
2017-05-13T19:59:42.570Z,4
2017-05-13T20:00:23.032Z,0
2017-05-13T20:01:03.489Z,0
2017-05-13T20:01:43.989Z,4
2017-05-13T20:02:24.506Z,4
2017-05-13T20:03:04.959Z,4
2017-05-13T20:03:45.458Z,4
2017-05-13T20:04:25.949Z,4
2017-05-13T20:05:06.425Z,0
2017-05-13T20:05:46.911Z,0
2017-05-13T20:06:27.415Z,0
2017-05-13T20:07:07.927Z,0
2017-05-13T20:07:48.357Z,0
2017-05-13T20:08:28.865Z,0
2017-05-13T20:09:09.373Z,0
2017-05-13T20:09:49.849Z,0
2017-05-13T20:10:30.307Z,0
2017-05-13T20:11:10.820Z,0
2017-05-13T20:11:51.324Z,0
2017-05-13T20:12:31.771Z,0
2017-05-13T20:13:12.227Z,0
2017-05-13T20:13:52.682Z,0
2017-05-13T20:14:33.192Z,0
2017-05-13T20:15:13.668Z,0
2017-05-13T20:15:54.154Z,0
2017-05-13T20:16:34.636Z,0
2017-05-13T20:17:15.118Z,0
2017-05-13T20:17:55.598Z,0
2017-05-13T20:18:36.098Z,0
2017-05-13T20:19:16.582Z,0
2017-05-13T20:19:57.079Z,0
2017-05-13T20:20:37.557Z,0
2017-05-13T20:21:18.073Z,0
2017-05-13T20:21:58.553Z,0
2017-05-13T20:22:39.025Z,0
2017-05-13T20:23:19.503Z,0
2017-05-13T20:24:00.013Z,0
2017-05-13T20:24:40.533Z,0
2017-05-13T20:25:21.015Z,0
2017-05-13T20:26:01.474Z,0
2017-05-13T20:26:41.942Z,0
2017-05-13T20:27:22.465Z,0
2017-05-13T20:28:02.978Z,0
2017-05-13T20:28:43.493Z,0
2017-05-13T20:29:23.951Z,0
2017-05-13T20:30:04.438Z,0
2017-05-13T20:30:44.905Z,0
2017-05-13T20:31:25.454Z,0
2017-05-13T20:32:05.938Z,0
2017-05-13T20:32:46.415Z,0
2017-05-13T20:33:26.842Z,0
2017-05-13T20:34:07.339Z,0
2017-05-13T20:34:47.827Z,0
2017-05-13T20:35:28.293Z,0
2017-05-13T20:36:08.779Z,0
2017-05-13T20:36:49.239Z,0
2017-05-13T20:37:29.713Z,0
2017-05-13T20:38:10.201Z,0
2017-05-13T20:38:50.701Z,0
2017-05-13T20:39:31.157Z,0
2017-05-13T20:40:11.641Z,0
2017-05-13T20:40:52.131Z,0
2017-05-13T20:41:32.611Z,0
2017-05-13T20:42:13.130Z,0
2017-05-13T20:42:53.556Z,0
2017-05-13T20:43:34.050Z,0
2017-05-13T20:44:14.522Z,0
2017-05-13T20:44:55.020Z,0
2017-05-13T20:45:35.567Z,0
2017-05-13T20:46:16.047Z,0
2017-05-13T20:46:56.663Z,0
2017-05-13T20:47:37.017Z,0
2017-05-13T20:48:17.546Z,0
2017-05-13T20:48:58.005Z,0
2017-05-13T20:49:38.458Z,0
2017-05-13T20:50:18.934Z,0
2017-05-13T20:50:59.408Z,0
2017-05-13T20:51:39.907Z,0
2017-05-13T20:52:20.405Z,0
2017-05-13T20:53:00.887Z,0
2017-05-13T20:53:41.369Z,0
2017-05-13T20:54:21.857Z,0
2017-05-13T20:55:02.359Z,0
2017-05-13T20:55:42.872Z,0
2017-05-13T20:56:23.401Z,0
2017-05-13T20:57:03.848Z,0
2017-05-13T20:57:44.307Z,0
2017-05-13T20:58:24.812Z,0
2017-05-13T20:59:05.293Z,0
2017-05-13T20:59:45.762Z,0
2017-05-13T21:00:26.255Z,0
2017-05-13T21:01:06.799Z,0
2017-05-13T21:01:47.268Z,0
2017-05-13T21:02:27.826Z,0
2017-05-13T21:03:08.301Z,0
2017-05-13T21:03:48.766Z,0
2017-05-13T21:04:29.258Z,0
2017-05-13T21:05:09.753Z,0